createdAt,value
2017-09-20T00:00:18.548Z,95945
2017-09-20T00:05:46.665Z,95949
2017-09-20T00:11:14.886Z,95951
2017-09-20T00:16:43.024Z,95944
2017-09-20T00:22:11.172Z,95940
2017-09-20T00:27:40.086Z,95946
2017-09-20T00:33:08.219Z,95951
2017-09-20T00:38:38.347Z,95946
2017-09-20T00:44:06.492Z,95939
2017-09-20T00:49:34.614Z,95943
2017-09-20T00:55:03.530Z,95944
2017-09-20T01:00:31.655Z,95947
2017-09-20T01:06:00.554Z,95952
2017-09-20T01:11:28.697Z,95947
2017-09-20T01:16:57.603Z,95951
2017-09-20T01:22:43.722Z,95944
2017-09-20T01:28:11.850Z,95951
2017-09-20T01:33:39.983Z,95948
2017-09-20T01:39:08.119Z,95949
2017-09-20T01:44:36.452Z,95944
2017-09-20T01:50:04.579Z,95946
2017-09-20T01:55:32.723Z,95944
2017-09-20T02:01:00.871Z,95950
2017-09-20T02:06:29.005Z,95953
2017-09-20T02:11:57.925Z,95953
2017-09-20T02:17:26.054Z,95951
2017-09-20T02:22:54.196Z,95945
2017-09-20T02:28:22.325Z,95950
2017-09-20T02:33:50.458Z,95950
2017-09-20T02:39:18.616Z,95951
2017-09-20T02:44:46.752Z,95954
2017-09-20T02:50:14.887Z,95966
2017-09-20T02:55:43.023Z,95966
2017-09-20T03:01:11.921Z,95978
2017-09-20T03:06:40.039Z,95976
2017-09-20T03:12:08.183Z,95978
2017-09-20T03:17:36.309Z,95976
2017-09-20T03:23:04.478Z,95985
2017-09-20T03:28:32.704Z,95993
2017-09-20T03:34:01.603Z,95988
2017-09-20T03:39:29.726Z,95989
2017-09-20T03:44:58.648Z,95994
2017-09-20T03:50:26.820Z,95991
2017-09-20T03:55:54.958Z,95992
2017-09-20T04:01:23.100Z,95995
2017-09-20T04:06:51.239Z,95996
2017-09-20T04:12:24.677Z,96004
2017-09-20T04:17:52.792Z,95989
2017-09-20T04:23:20.944Z,95996
2017-09-20T04:28:51.180Z,95999
2017-09-20T04:34:19.312Z,96002
2017-09-20T04:39:47.465Z,96010
2017-09-20T04:45:15.584Z,96014
2017-09-20T04:50:43.690Z,96008
2017-09-20T04:56:12.581Z,96013
2017-09-20T05:01:40.718Z,96017
2017-09-20T05:07:08.869Z,96010
2017-09-20T05:12:37.777Z,96023
2017-09-20T05:18:05.945Z,96038
2017-09-20T05:23:34.083Z,96036
2017-09-20T05:29:02.246Z,96045
2017-09-20T05:34:30.410Z,96046
2017-09-20T05:39:58.599Z,96046
2017-09-20T05:45:27.527Z,96051
2017-09-20T05:50:55.658Z,96056
2017-09-20T05:56:24.543Z,96048
2017-09-20T06:01:52.675Z,96046
2017-09-20T06:07:20.799Z,96055
2017-09-20T06:12:48.926Z,96064
2017-09-20T06:18:17.066Z,96065
2017-09-20T06:23:45.195Z,96073
2017-09-20T06:29:13.318Z,96077
2017-09-20T06:34:41.457Z,96075
2017-09-20T06:40:10.375Z,96081
2017-09-20T06:45:38.496Z,96081
2017-09-20T06:51:06.630Z,96083
2017-09-20T06:56:35.288Z,96084
2017-09-20T07:02:04.196Z,96082
2017-09-20T07:07:32.312Z,96088
2017-09-20T07:13:00.432Z,96101
2017-09-20T07:18:28.562Z,96104
2017-09-20T07:23:56.695Z,96102
2017-09-20T07:29:25.580Z,96110
2017-09-20T07:34:54.487Z,96117
2017-09-20T07:40:22.631Z,96110
2017-09-20T07:45:50.771Z,96107
2017-09-20T07:51:19.670Z,96111
2017-09-20T07:56:47.810Z,96117
2017-09-20T08:02:15.983Z,96116
2017-09-20T08:07:44.859Z,96114
2017-09-20T08:13:13.002Z,96111
2017-09-20T08:18:41.140Z,96110
2017-09-20T08:24:10.056Z,96113
2017-09-20T08:29:38.186Z,96117
2017-09-20T08:35:06.327Z,96110
2017-09-20T08:40:35.204Z,96096
2017-09-20T08:46:04.101Z,96113
2017-09-20T08:51:32.225Z,96129
2017-09-20T08:57:00.390Z,96120
2017-09-20T09:02:29.327Z,96112
2017-09-20T09:07:57.476Z,96128
2017-09-20T09:13:25.614Z,96136
2017-09-20T09:18:53.780Z,96129
2017-09-20T09:24:21.907Z,96134
2017-09-20T09:29:50.796Z,96131
2017-09-20T09:35:18.939Z,96149
2017-09-20T09:40:47.840Z,96147
2017-09-20T09:46:15.991Z,96154
2017-09-20T09:51:44.139Z,96146
2017-09-20T09:57:12.382Z,96139
2017-09-20T10:02:41.290Z,96137
2017-09-20T10:08:09.437Z,96143
2017-09-20T10:13:37.577Z,96145
2017-09-20T10:19:06.489Z,96140
2017-09-20T10:24:34.631Z,96138
2017-09-20T10:30:02.816Z,96144
2017-09-20T10:35:30.972Z,96147
2017-09-20T10:40:59.112Z,96135
2017-09-20T10:46:27.264Z,96133
2017-09-20T10:51:55.392Z,96130
2017-09-20T10:57:24.316Z,96130
2017-09-20T11:02:52.448Z,96132
2017-09-20T11:08:20.604Z,96133
2017-09-20T11:13:48.747Z,96120
2017-09-20T11:19:17.645Z,96110
2017-09-20T11:24:45.790Z,96119
2017-09-20T11:30:14.678Z,96119
2017-09-20T11:35:42.834Z,96111
2017-09-20T11:41:10.957Z,96102
2017-09-20T11:46:39.116Z,96100
2017-09-20T11:52:07.241Z,96094
2017-09-20T11:57:35.376Z,96110
2017-09-20T12:03:03.545Z,96104
2017-09-20T12:08:31.676Z,96099
2017-09-20T12:13:59.832Z,96085
2017-09-20T12:19:27.981Z,96082
2017-09-20T12:24:56.897Z,96091
2017-09-20T12:30:25.044Z,96072
2017-09-20T12:35:53.203Z,96079
2017-09-20T12:41:21.339Z,96084
2017-09-20T12:46:49.465Z,96086
2017-09-20T12:52:17.615Z,96092
2017-09-20T12:57:45.768Z,96084
2017-09-20T13:03:13.893Z,96084
2017-09-20T13:08:42.068Z,96087
2017-09-20T13:14:10.240Z,96079
2017-09-20T13:19:38.385Z,96074
2017-09-20T13:25:06.514Z,96079
2017-09-20T13:30:34.659Z,96069
2017-09-20T13:36:02.796Z,96070
2017-09-20T13:41:31.705Z,96064
2017-09-20T13:46:59.838Z,96072
2017-09-20T13:52:28.754Z,96068
2017-09-20T13:57:56.894Z,96074
2017-09-20T14:03:25.032Z,96076
2017-09-20T14:08:53.948Z,96068
2017-09-20T14:14:22.087Z,96077
2017-09-20T14:19:50.219Z,96067
2017-09-20T14:25:19.126Z,96082
2017-09-20T14:30:47.320Z,96084
2017-09-20T14:36:15.458Z,96082
2017-09-20T14:41:43.590Z,96093
2017-09-20T14:47:11.730Z,96085
2017-09-20T14:52:40.643Z,96078
2017-09-20T14:58:08.798Z,96074
2017-09-20T15:03:36.943Z,96073
2017-09-20T15:09:05.821Z,96081
2017-09-20T15:14:33.981Z,96092
2017-09-20T15:20:02.161Z,96118
2017-09-20T15:25:30.367Z,96140
2017-09-20T15:30:58.545Z,96118
2017-09-20T15:36:26.715Z,96123
2017-09-20T15:41:54.870Z,96119
2017-09-20T15:47:23.044Z,96108
2017-09-20T15:52:51.195Z,96114
2017-09-20T15:58:19.323Z,96107
2017-09-20T16:03:49.042Z,96111
2017-09-20T16:09:17.287Z,96107
2017-09-20T16:14:45.479Z,96103
2017-09-20T16:20:13.609Z,96107
2017-09-20T16:25:41.830Z,96110
2017-09-20T16:31:10.088Z,96110
2017-09-20T16:36:39.061Z,96116
2017-09-20T16:42:07.956Z,96118
2017-09-20T16:47:36.120Z,96126
2017-09-20T16:53:04.269Z,96129
2017-09-20T16:58:32.416Z,96122
2017-09-20T17:04:01.308Z,96122
2017-09-20T17:09:29.677Z,96119
2017-09-20T17:14:59.150Z,96130
2017-09-20T17:20:30.136Z,96140
2017-09-20T17:25:58.348Z,96144
2017-09-20T17:31:26.514Z,96148
2017-09-20T17:36:54.833Z,96160
2017-09-20T17:42:23.877Z,96156
2017-09-20T17:47:52.818Z,96170
2017-09-20T17:53:20.969Z,96180
2017-09-20T17:58:49.884Z,96177
2017-09-20T18:04:18.012Z,96179
2017-09-20T18:09:46.160Z,96184
2017-09-20T18:15:14.306Z,96179
2017-09-20T18:20:43.258Z,96181
2017-09-20T18:26:11.407Z,96194
2017-09-20T18:31:41.510Z,96195
2017-09-20T18:37:11.491Z,96202
2017-09-20T18:42:39.646Z,96203
2017-09-20T18:48:07.781Z,96197
2017-09-20T18:53:36.884Z,96193
2017-09-20T18:59:05.785Z,96195
2017-09-20T19:04:34.876Z,96196
2017-09-20T19:10:03.022Z,96204
2017-09-20T19:15:31.241Z,96197
2017-09-20T19:21:00.366Z,96198
2017-09-20T19:26:31.437Z,96195
2017-09-20T19:32:00.330Z,96206
2017-09-20T19:37:28.484Z,96206
2017-09-20T19:42:56.629Z,96211
2017-09-20T19:48:24.802Z,96204
2017-09-20T19:53:52.995Z,96201
2017-09-20T19:59:21.140Z,96204
2017-09-20T20:04:49.270Z,96210
2017-09-20T20:10:17.451Z,96229
2017-09-20T20:15:45.577Z,96245
2017-09-20T20:21:13.711Z,96244
2017-09-20T20:26:41.867Z,96231
2017-09-20T20:32:10.809Z,96231
2017-09-20T20:37:38.947Z,96232
2017-09-20T20:43:07.110Z,96232
2017-09-20T20:48:36.194Z,96231
2017-09-20T20:54:04.366Z,96232
2017-09-20T20:59:32.492Z,96234
2017-09-20T21:05:00.854Z,96242
2017-09-20T21:10:29.961Z,96236
2017-09-20T21:15:58.883Z,96244
2017-09-20T21:21:28.723Z,96239
2017-09-20T21:27:00.063Z,96236
2017-09-20T21:32:48.728Z,96233
2017-09-20T21:38:16.895Z,96233
2017-09-20T21:43:44.998Z,96235
2017-09-20T21:49:13.140Z,96237
2017-09-20T21:54:41.272Z,96237
2017-09-20T22:00:09.378Z,96239
2017-09-20T22:05:47.454Z,96233
2017-09-20T22:11:15.587Z,96233
2017-09-20T22:17:03.323Z,96223
2017-09-20T22:22:52.054Z,96221
2017-09-20T22:28:20.185Z,96228
2017-09-20T22:33:50.037Z,96219
2017-09-20T22:39:18.924Z,96211
2017-09-20T22:44:47.079Z,96217
2017-09-20T22:50:15.185Z,96212
2017-09-20T22:55:47.168Z,96213
2017-09-20T23:01:15.350Z,96204
2017-09-20T23:06:43.487Z,96209
2017-09-20T23:12:12.770Z,96219
2017-09-20T23:17:40.908Z,96216
2017-09-20T23:23:09.038Z,96217
2017-09-20T23:28:37.171Z,96227
2017-09-20T23:34:05.397Z,96227
2017-09-20T23:39:33.518Z,96219
2017-09-20T23:45:01.659Z,96216
2017-09-20T23:50:29.790Z,96220
2017-09-20T23:55:57.928Z,96217
